createdAt,value
2022-12-26T00:00:52.287Z,99.99
2022-12-26T00:01:52.482Z,99.99
2022-12-26T00:02:53.880Z,99.99
2022-12-26T00:03:54.894Z,99.99
2022-12-26T00:04:59.303Z,99.99
2022-12-26T00:05:56.881Z,99.99
2022-12-26T00:06:57.846Z,99.99
2022-12-26T00:07:58.783Z,99.99
2022-12-26T00:08:59.271Z,99.99
2022-12-26T00:09:59.487Z,99.99
2022-12-26T00:11:00.718Z,99.99
2022-12-26T00:12:00.942Z,99.99
2022-12-26T00:13:42.867Z,99.99
2022-12-26T00:14:00.384Z,99.99
2022-12-26T00:15:01.090Z,99.99
2022-12-26T00:16:01.725Z,99.99
2022-12-26T00:17:01.877Z,99.99
2022-12-26T00:18:03.126Z,99.99
2022-12-26T00:19:04.164Z,99.99
2022-12-26T00:20:04.110Z,99.99
2022-12-26T00:21:05.162Z,99.99
2022-12-26T00:22:06.095Z,99.99
2022-12-26T00:23:06.029Z,99.99
2022-12-26T00:24:06.537Z,99.99
2022-12-26T00:25:06.472Z,99.99
2022-12-26T00:26:07.452Z,99.99
2022-12-26T00:27:07.690Z,99.99
2022-12-26T00:28:07.985Z,99.99
2022-12-26T00:29:08.639Z,99.99
2022-12-26T00:30:08.860Z,99.99
2022-12-26T00:31:09.637Z,99.99
2022-12-26T00:32:10.181Z,99.99
2022-12-26T00:33:10.571Z,99.99
2022-12-26T00:34:11.825Z,99.99
2022-12-26T00:35:12.758Z,99.99
2022-12-26T00:36:13.286Z,99.99
2022-12-26T00:37:13.772Z,99.99
2022-12-26T00:38:14.271Z,99.99
2022-12-26T00:39:15.278Z,99.99
2022-12-26T00:40:16.251Z,99.99
2022-12-26T00:41:17.177Z,99.99
2022-12-26T00:42:17.147Z,99.99
2022-12-26T00:43:17.677Z,99.99
2022-12-26T00:44:17.613Z,99.99
2022-12-26T00:45:18.112Z,99.99
2022-12-26T00:46:18.109Z,99.99
2022-12-26T00:47:18.741Z,99.99
2022-12-26T00:48:18.719Z,99.99
2022-12-26T00:49:19.149Z,99.99
2022-12-26T00:50:21.186Z,99.99
2022-12-26T00:51:18.492Z,99.99
2022-12-26T00:52:18.701Z,99.99
2022-12-26T00:53:18.920Z,99.99
2022-12-26T00:54:19.841Z,99.99
2022-12-26T00:55:20.788Z,99.99
2022-12-26T00:56:21.414Z,99.99
2022-12-26T00:57:22.662Z,99.99
2022-12-26T00:58:22.930Z,99.99
2022-12-26T00:59:23.683Z,99.99
2022-12-26T01:00:23.886Z,99.99
2022-12-26T01:01:25.548Z,99.99
2022-12-26T01:02:25.759Z,99.99
2022-12-26T01:03:25.829Z,99.99
2022-12-26T01:04:26.609Z,99.99
2022-12-26T01:05:27.547Z,99.99
2022-12-26T01:06:28.539Z,99.99
2022-12-26T01:07:29.476Z,99.99
2022-12-26T01:08:31.709Z,99.99
2022-12-26T01:09:32.079Z,99.99
2022-12-26T01:10:33.010Z,99.99
2022-12-26T01:11:33.214Z,99.99
2022-12-26T01:12:33.887Z,99.99
2022-12-26T01:13:34.144Z,99.99
2022-12-26T01:14:34.356Z,99.99
2022-12-26T01:15:34.555Z,99.99
2022-12-26T01:16:35.284Z,99.99
2022-12-26T01:17:35.824Z,99.99
2022-12-26T01:18:35.794Z,99.99
2022-12-26T01:19:37.097Z,99.99
2022-12-26T01:20:37.458Z,99.99
2022-12-26T01:21:37.994Z,99.99
2022-12-26T01:22:38.216Z,99.99
2022-12-26T01:23:38.724Z,99.99
2022-12-26T01:24:39.089Z,99.99
2022-12-26T01:26:16.000Z,99.99
2022-12-26T01:26:40.153Z,99.99
2022-12-26T01:27:40.059Z,99.99
2022-12-26T01:28:40.846Z,99.99
2022-12-26T01:29:40.590Z,99.99
2022-12-26T01:30:41.821Z,99.99
2022-12-26T01:31:42.053Z,99.99
2022-12-26T01:32:42.800Z,99.99
2022-12-26T01:33:43.017Z,99.99
2022-12-26T01:34:43.244Z,99.99
2022-12-26T01:35:43.195Z,99.99
2022-12-26T01:36:44.148Z,99.99
2022-12-26T01:37:44.356Z,99.99
2022-12-26T01:38:45.344Z,99.99
2022-12-26T01:39:45.771Z,99.99
2022-12-26T01:40:46.330Z,99.99
2022-12-26T01:41:46.542Z,99.99
2022-12-26T01:42:47.507Z,99.99
2022-12-26T01:43:48.079Z,99.99
2022-12-26T01:44:48.095Z,99.99
2022-12-26T01:45:49.645Z,99.99
2022-12-26T01:46:49.826Z,99.99
2022-12-26T01:47:50.471Z,99.99
2022-12-26T01:48:51.408Z,99.99
2022-12-26T01:49:51.792Z,99.99
2022-12-26T01:50:51.719Z,99.99
2022-12-26T01:51:52.656Z,99.99
2022-12-26T01:52:52.592Z,99.99
2022-12-26T01:53:53.513Z,99.99
2022-12-26T01:54:52.620Z,99.99
2022-12-26T01:55:53.257Z,99.99
2022-12-26T01:56:54.212Z,99.99
2022-12-26T01:57:54.435Z,99.99
2022-12-26T01:58:55.436Z,99.99
2022-12-26T01:59:56.163Z,99.99
2022-12-26T02:00:56.688Z,99.99
2022-12-26T02:01:57.382Z,99.99
2022-12-26T02:02:58.151Z,99.99
2022-12-26T02:03:58.300Z,99.99
2022-12-26T02:04:58.551Z,99.99
2022-12-26T02:05:58.864Z,99.99
2022-12-26T02:06:59.274Z,99.99
2022-12-26T02:08:00.270Z,99.99
2022-12-26T02:09:00.508Z,99.99
2022-12-26T02:10:00.855Z,99.99
2022-12-26T02:11:01.770Z,99.99
2022-12-26T02:12:42.489Z,99.99
2022-12-26T02:13:02.985Z,99.99
2022-12-26T02:14:03.251Z,99.99
2022-12-26T02:15:03.651Z,99.99
2022-12-26T02:16:04.668Z,99.99
2022-12-26T02:17:05.416Z,99.99
2022-12-26T02:18:05.576Z,99.99
2022-12-26T02:19:05.963Z,99.99
2022-12-26T02:20:06.978Z,99.99
2022-12-26T02:21:07.916Z,99.99
2022-12-26T02:22:08.428Z,99.99
2022-12-26T02:23:08.653Z,99.99
2022-12-26T02:24:09.572Z,99.99
2022-12-26T02:25:09.825Z,99.99
2022-12-26T02:26:10.219Z,99.99
2022-12-26T02:27:11.440Z,99.99
2022-12-26T02:28:11.942Z,99.99
2022-12-26T02:29:12.479Z,99.99
2022-12-26T02:30:13.093Z,99.99
2022-12-26T02:31:13.346Z,99.99
2022-12-26T02:32:14.730Z,99.99
2022-12-26T02:33:15.150Z,99.99
2022-12-26T02:34:15.077Z,99.99
2022-12-26T02:35:15.762Z,99.99
2022-12-26T02:36:15.961Z,99.99
2022-12-26T02:37:16.175Z,99.99
2022-12-26T02:38:17.091Z,99.99
2022-12-26T02:39:51.600Z,99.99
2022-12-26T02:40:39.328Z,99.99
2022-12-26T02:41:40.679Z,99.99
2022-12-26T02:42:41.612Z,99.99
2022-12-26T02:43:42.115Z,99.99
2022-12-26T02:44:42.647Z,99.99
2022-12-26T02:45:43.398Z,99.99
2022-12-26T02:46:44.089Z,99.99
2022-12-26T02:47:45.046Z,99.99
2022-12-26T02:48:45.309Z,99.99
2022-12-26T02:49:46.646Z,99.99
2022-12-26T02:50:47.304Z,99.99
2022-12-26T02:51:47.517Z,99.99
2022-12-26T02:52:47.731Z,99.99
2022-12-26T02:53:48.656Z,99.99
2022-12-26T02:54:49.183Z,99.99
2022-12-26T02:55:49.881Z,99.99
2022-12-26T02:56:50.455Z,99.99
2022-12-26T02:57:51.390Z,99.99
2022-12-26T02:58:51.603Z,99.99
2022-12-26T03:00:01.372Z,99.99
2022-12-26T03:00:53.189Z,99.99
2022-12-26T03:01:54.400Z,99.99
2022-12-26T03:02:54.839Z,99.99
2022-12-26T03:03:55.091Z,99.99
2022-12-26T03:04:56.297Z,99.99
2022-12-26T03:05:56.828Z,99.99
2022-12-26T03:06:56.764Z,99.99
2022-12-26T03:07:58.009Z,99.99
2022-12-26T03:08:58.949Z,99.99
2022-12-26T03:09:59.458Z,99.99
2022-12-26T03:11:00.119Z,99.99
2022-12-26T03:12:00.055Z,99.99
2022-12-26T03:13:01.013Z,99.99
2022-12-26T03:14:01.619Z,99.99
2022-12-26T03:15:02.586Z,99.99
2022-12-26T03:16:03.522Z,99.99
2022-12-26T03:17:03.916Z,99.99
2022-12-26T03:18:04.322Z,99.99
2022-12-26T03:19:05.997Z,99.99
2022-12-26T03:20:04.744Z,99.99
2022-12-26T03:21:05.413Z,99.99
2022-12-26T03:22:06.092Z,99.99
2022-12-26T03:23:07.115Z,99.99
2022-12-26T03:24:08.035Z,99.99
2022-12-26T03:25:08.256Z,99.99
2022-12-26T03:26:09.175Z,99.99
2022-12-26T03:27:09.842Z,99.99
2022-12-26T03:28:10.376Z,99.99
2022-12-26T03:29:14.399Z,99.99
2022-12-26T03:30:12.159Z,99.99
2022-12-26T03:31:13.252Z,99.99
2022-12-26T03:32:13.597Z,99.99
2022-12-26T03:33:14.568Z,99.99
2022-12-26T03:34:14.766Z,99.99
2022-12-26T03:35:14.998Z,99.99
2022-12-26T03:36:15.663Z,99.99
2022-12-26T03:37:16.603Z,99.99
2022-12-26T03:38:16.677Z,99.99
2022-12-26T03:39:17.605Z,99.99
2022-12-26T03:40:17.804Z,99.99
2022-12-26T03:41:17.983Z,99.99
2022-12-26T03:42:18.220Z,99.99
2022-12-26T03:43:19.195Z,99.99
2022-12-26T03:44:20.203Z,99.99
2022-12-26T03:45:20.720Z,99.99
2022-12-26T03:46:21.562Z,99.99
2022-12-26T03:47:22.036Z,99.99
2022-12-26T03:48:22.984Z,99.99
2022-12-26T03:49:22.906Z,99.99
2022-12-26T03:50:24.109Z,99.99
2022-12-26T03:51:24.941Z,99.99
2022-12-26T03:52:25.861Z,99.99
2022-12-26T03:53:26.834Z,99.99
2022-12-26T03:54:27.769Z,99.99
2022-12-26T03:55:28.133Z,99.99
2022-12-26T03:56:28.365Z,99.99
2022-12-26T03:57:28.804Z,99.99
2022-12-26T03:58:29.070Z,99.99
2022-12-26T03:59:29.375Z,99.99
2022-12-26T04:00:30.173Z,99.99
2022-12-26T04:01:30.414Z,99.99
2022-12-26T04:02:31.084Z,99.99
2022-12-26T04:03:31.612Z,99.99
2022-12-26T04:04:31.796Z,99.99
2022-12-26T04:05:32.735Z,99.99
2022-12-26T04:06:33.671Z,99.99
2022-12-26T04:07:34.186Z,99.99
2022-12-26T04:08:34.822Z,99.99
2022-12-26T04:09:35.556Z,99.99
2022-12-26T04:10:36.232Z,99.99
2022-12-26T04:11:36.853Z,99.99
2022-12-26T04:12:36.783Z,99.99
2022-12-26T04:13:37.993Z,99.99
2022-12-26T04:14:38.016Z,99.99
2022-12-26T04:15:39.431Z,99.99
2022-12-26T04:16:39.826Z,99.99
2022-12-26T04:17:40.013Z,99.99
2022-12-26T04:18:41.240Z,99.99
2022-12-26T04:19:41.445Z,99.99
2022-12-26T04:20:41.642Z,99.99
2022-12-26T04:21:41.982Z,99.99
2022-12-26T04:22:42.215Z,99.99
2022-12-26T04:23:42.596Z,99.99
2022-12-26T04:24:43.237Z,99.99
2022-12-26T04:25:56.036Z,99.99
2022-12-26T04:26:44.692Z,99.99
2022-12-26T04:27:44.956Z,99.99
2022-12-26T04:28:45.353Z,99.99
2022-12-26T04:29:45.916Z,99.99
2022-12-26T04:30:46.206Z,99.99
2022-12-26T04:31:46.989Z,99.99
2022-12-26T04:32:47.910Z,99.99
2022-12-26T04:33:48.163Z,99.99
2022-12-26T04:34:49.102Z,99.99
2022-12-26T04:35:49.316Z,99.99
2022-12-26T04:36:49.868Z,99.99
2022-12-26T04:37:49.799Z,99.99
2022-12-26T04:38:50.339Z,99.99
2022-12-26T04:39:51.257Z,99.99
2022-12-26T04:40:51.624Z,99.99
2022-12-26T04:41:52.910Z,99.99
2022-12-26T04:42:53.154Z,99.99
2022-12-26T04:43:57.464Z,99.99
2022-12-26T04:44:56.397Z,99.99
2022-12-26T04:45:57.019Z,99.99
2022-12-26T04:46:57.699Z,99.99
2022-12-26T04:47:58.170Z,99.99
2022-12-26T04:48:58.426Z,99.99
2022-12-26T04:49:58.655Z,99.99
2022-12-26T04:50:58.592Z,99.99
2022-12-26T04:51:59.699Z,99.99
2022-12-26T04:53:00.764Z,99.99
2022-12-26T04:54:00.540Z,99.99
2022-12-26T04:55:00.796Z,99.99
2022-12-26T04:56:01.781Z,99.99
2022-12-26T04:57:02.002Z,99.99
2022-12-26T04:58:02.394Z,99.99
2022-12-26T04:59:03.347Z,99.99
2022-12-26T05:00:03.545Z,99.99
2022-12-26T05:01:03.924Z,99.99
2022-12-26T05:02:04.991Z,99.99
2022-12-26T05:03:05.823Z,99.99
2022-12-26T05:04:06.768Z,99.99
2022-12-26T05:05:07.027Z,99.99
2022-12-26T05:06:07.549Z,99.99
2022-12-26T05:07:07.796Z,99.99
2022-12-26T05:08:08.465Z,99.99
2022-12-26T05:09:09.128Z,99.99
2022-12-26T05:10:10.353Z,99.99
2022-12-26T05:11:10.979Z,99.99
2022-12-26T05:12:12.011Z,99.99
2022-12-26T05:13:12.223Z,99.99
2022-12-26T05:14:12.864Z,99.99
2022-12-26T05:15:13.089Z,99.99
2022-12-26T05:16:13.287Z,99.99
2022-12-26T05:17:13.707Z,99.99
2022-12-26T05:18:13.939Z,99.99
2022-12-26T05:19:14.411Z,99.99
2022-12-26T05:20:15.117Z,99.99
2022-12-26T05:21:15.429Z,99.99
2022-12-26T05:22:16.192Z,99.99
2022-12-26T05:23:16.435Z,99.99
2022-12-26T05:24:16.792Z,99.99
2022-12-26T05:25:16.998Z,99.99
2022-12-26T05:26:17.083Z,99.99
2022-12-26T05:27:17.248Z,99.99
2022-12-26T05:28:17.752Z,99.99
2022-12-26T05:29:18.673Z,99.99
2022-12-26T05:30:18.879Z,99.99
2022-12-26T05:31:19.286Z,99.99
2022-12-26T05:32:20.387Z,99.99
2022-12-26T05:33:20.634Z,99.99
2022-12-26T05:34:20.879Z,99.99
2022-12-26T05:35:20.796Z,99.99
2022-12-26T05:36:21.162Z,99.99
2022-12-26T05:37:22.420Z,99.99
2022-12-26T05:38:22.333Z,99.99
2022-12-26T05:39:23.313Z,99.99
2022-12-26T05:40:24.265Z,99.99
2022-12-26T05:41:25.287Z,99.99
2022-12-26T05:42:25.586Z,99.99
2022-12-26T05:43:26.511Z,99.99
2022-12-26T05:44:26.886Z,99.99
2022-12-26T05:45:27.261Z,99.99
2022-12-26T05:46:28.668Z,99.99
2022-12-26T05:47:28.437Z,99.99
2022-12-26T05:48:29.688Z,99.99
2022-12-26T05:49:30.248Z,99.99
2022-12-26T05:50:30.764Z,99.99
2022-12-26T05:51:30.973Z,99.99
2022-12-26T05:52:31.331Z,99.99
2022-12-26T05:53:31.541Z,99.99
2022-12-26T05:54:31.799Z,99.99
2022-12-26T05:55:32.048Z,99.99
2022-12-26T05:56:31.954Z,99.99
2022-12-26T05:57:33.039Z,99.99
2022-12-26T05:58:33.731Z,99.99
2022-12-26T05:59:34.313Z,99.99
2022-12-26T06:00:34.709Z,99.99
2022-12-26T06:01:36.017Z,99.99
2022-12-26T06:02:36.415Z,99.99
2022-12-26T06:03:36.873Z,99.99
2022-12-26T06:04:37.074Z,99.99
2022-12-26T06:05:38.192Z,99.99
2022-12-26T06:06:38.415Z,99.99
2022-12-26T06:07:39.393Z,99.99
2022-12-26T06:08:39.615Z,99.99
2022-12-26T06:09:40.127Z,99.99
2022-12-26T06:10:40.786Z,99.99
2022-12-26T06:11:46.895Z,99.99
2022-12-26T06:12:41.360Z,99.99
2022-12-26T06:13:41.884Z,99.99
2022-12-26T06:14:42.577Z,99.99
2022-12-26T06:15:43.071Z,99.99
2022-12-26T06:16:43.359Z,99.99
2022-12-26T06:17:44.315Z,99.99
2022-12-26T06:18:44.547Z,99.99
2022-12-26T06:19:52.004Z,99.99
2022-12-26T06:20:44.658Z,99.99
2022-12-26T06:21:45.580Z,99.99
2022-12-26T06:22:46.389Z,99.99
2022-12-26T06:23:46.902Z,99.99
2022-12-26T06:24:47.155Z,99.99
2022-12-26T06:25:47.111Z,99.99
2022-12-26T06:26:47.750Z,99.99
2022-12-26T06:27:47.679Z,99.99
2022-12-26T06:28:47.917Z,99.99
2022-12-26T06:29:48.572Z,99.99
2022-12-26T06:30:49.487Z,99.99
2022-12-26T06:31:49.914Z,99.99
2022-12-26T06:32:50.759Z,99.99
2022-12-26T06:33:51.029Z,99.99
2022-12-26T06:34:51.844Z,99.99
2022-12-26T06:35:52.839Z,99.99
2022-12-26T06:36:53.059Z,99.99
2022-12-26T06:37:53.707Z,99.99
2022-12-26T06:38:53.969Z,99.99
2022-12-26T06:39:54.640Z,99.99
2022-12-26T06:40:55.000Z,99.99
2022-12-26T06:41:56.341Z,99.99
2022-12-26T06:42:57.110Z,99.99
2022-12-26T06:43:57.343Z,99.99
2022-12-26T06:44:58.230Z,99.99
2022-12-26T06:45:58.467Z,99.99
2022-12-26T06:46:59.231Z,99.99
2022-12-26T06:47:59.839Z,99.99
2022-12-26T06:49:00.812Z,99.99
2022-12-26T06:50:01.374Z,99.99
2022-12-26T06:51:02.328Z,99.99
2022-12-26T06:52:02.832Z,99.99
2022-12-26T06:53:03.923Z,99.99
2022-12-26T06:54:04.136Z,99.99
2022-12-26T06:55:04.090Z,99.99
2022-12-26T06:56:04.355Z,99.99
2022-12-26T06:57:05.316Z,99.99
2022-12-26T06:58:06.255Z,99.99
2022-12-26T06:59:06.490Z,99.99
2022-12-26T07:00:07.146Z,99.99
2022-12-26T07:01:08.043Z,99.99
2022-12-26T07:02:08.400Z,99.99
2022-12-26T07:03:08.431Z,99.99
2022-12-26T07:04:09.191Z,99.99
2022-12-26T07:05:09.905Z,99.99
2022-12-26T07:06:10.155Z,99.99
2022-12-26T07:07:10.658Z,99.99
2022-12-26T07:08:11.041Z,99.99
2022-12-26T07:09:11.290Z,99.99
2022-12-26T07:10:12.108Z,99.99
2022-12-26T07:11:12.592Z,99.99
2022-12-26T07:12:12.800Z,99.99
2022-12-26T07:13:13.139Z,99.99
2022-12-26T07:14:14.080Z,99.99
2022-12-26T07:15:14.032Z,99.99
2022-12-26T07:16:14.480Z,99.99
2022-12-26T07:17:14.951Z,99.99
2022-12-26T07:18:16.180Z,99.99
2022-12-26T07:19:16.540Z,99.99
2022-12-26T07:20:16.805Z,99.99
2022-12-26T07:21:17.741Z,99.99
2022-12-26T07:22:18.251Z,99.99
2022-12-26T07:23:19.289Z,99.99
2022-12-26T07:24:20.261Z,99.99
2022-12-26T07:25:20.536Z,99.99
2022-12-26T07:26:21.464Z,99.99
2022-12-26T07:27:21.407Z,99.99
2022-12-26T07:28:22.355Z,99.99
2022-12-26T07:29:23.342Z,99.99
2022-12-26T07:30:23.692Z,99.99
2022-12-26T07:31:24.331Z,99.99
2022-12-26T07:32:25.173Z,99.99
2022-12-26T07:33:26.225Z,99.99
2022-12-26T07:34:32.349Z,99.99
2022-12-26T07:35:27.068Z,99.99
2022-12-26T07:36:27.328Z,99.99
2022-12-26T07:37:28.537Z,99.99
2022-12-26T07:38:29.484Z,99.99
2022-12-26T07:39:30.133Z,99.99
2022-12-26T07:40:30.774Z,99.99
2022-12-26T07:41:31.135Z,99.99
2022-12-26T07:42:31.803Z,99.99
2022-12-26T07:43:32.815Z,99.99
2022-12-26T07:44:33.446Z,99.99
2022-12-26T07:45:34.153Z,99.99
2022-12-26T07:46:34.748Z,99.99
2022-12-26T07:47:34.858Z,99.99
2022-12-26T07:48:35.829Z,99.99
2022-12-26T07:49:36.031Z,99.99
2022-12-26T07:50:36.954Z,99.99
2022-12-26T07:51:37.494Z,99.99
2022-12-26T07:52:38.443Z,99.99
2022-12-26T07:53:38.855Z,99.99
2022-12-26T07:54:39.096Z,99.99
2022-12-26T07:55:39.384Z,99.99
2022-12-26T07:56:39.640Z,99.12
2022-12-26T07:57:55.745Z,94.89
2022-12-26T07:58:41.081Z,93.74
2022-12-26T07:59:42.298Z,92.36
2022-12-26T08:00:42.589Z,91.6
2022-12-26T08:01:43.665Z,90.27
2022-12-26T08:02:44.728Z,90.6
2022-12-26T08:03:44.696Z,90.03
2022-12-26T08:04:45.400Z,90.17
2022-12-26T08:05:46.479Z,90.65
2022-12-26T08:06:46.742Z,91.41
2022-12-26T08:07:47.373Z,91.99
2022-12-26T08:08:54.132Z,91.79
2022-12-26T08:09:48.815Z,93.08
2022-12-26T08:10:48.808Z,94.32
2022-12-26T08:11:50.009Z,96.03
2022-12-26T08:12:50.226Z,96.12
2022-12-26T08:13:50.685Z,96.6
2022-12-26T08:14:50.922Z,96.74
2022-12-26T08:15:51.888Z,96.94
2022-12-26T08:16:57.189Z,96.36
2022-12-26T08:17:52.695Z,96.36
2022-12-26T08:18:53.230Z,96.94
2022-12-26T08:19:54.167Z,96.74
2022-12-26T08:20:54.843Z,96.74
2022-12-26T08:21:55.726Z,95.98
2022-12-26T08:23:56.861Z,95.98
2022-12-26T08:24:57.513Z,96.36
2022-12-26T08:25:57.901Z,96.08
2022-12-26T08:26:58.144Z,96.08
2022-12-26T08:27:58.645Z,96.08
2022-12-26T08:28:59.175Z,96.46
2022-12-26T08:30:00.114Z,95.98
2022-12-26T08:31:00.986Z,95.98
2022-12-26T08:32:01.117Z,94.84
2022-12-26T08:33:02.074Z,95.51
2022-12-26T08:34:01.875Z,96.08
2022-12-26T08:35:02.873Z,95.7
2022-12-26T08:36:03.435Z,95.79
2022-12-26T08:37:04.126Z,95.79
2022-12-26T08:38:05.037Z,95.7
2022-12-26T08:39:05.618Z,95.51
2022-12-26T08:40:06.499Z,95.51
2022-12-26T08:41:06.648Z,95.56
2022-12-26T08:42:06.565Z,95.84
2022-12-26T08:43:45.245Z,96.03
2022-12-26T08:45:13.628Z,96.03
2022-12-26T08:46:14.220Z,96.03
2022-12-26T08:47:14.827Z,95.36
2022-12-26T08:48:15.790Z,95.65
2022-12-26T08:49:15.744Z,94.98
2022-12-26T08:50:16.963Z,95.17
2022-12-26T08:51:17.513Z,94.89
2022-12-26T08:52:17.497Z,94.79
2022-12-26T08:53:18.143Z,95.08
2022-12-26T08:54:18.700Z,94.42
2022-12-26T08:55:19.018Z,94.03
2022-12-26T08:56:19.251Z,93.94
2022-12-26T08:57:19.772Z,92.89
2022-12-26T08:58:19.766Z,92.22
2022-12-26T08:59:20.905Z,91.37
2022-12-26T09:00:21.140Z,90.84
2022-12-26T09:01:22.154Z,90.36
2022-12-26T09:02:23.211Z,89.89
2022-12-26T09:03:23.518Z,88.93
2022-12-26T09:04:23.637Z,89.07
2022-12-26T09:05:24.661Z,88.51
2022-12-26T09:06:24.869Z,88.41
2022-12-26T09:07:25.541Z,87.36
2022-12-26T09:08:26.474Z,86.98
2022-12-26T09:09:26.743Z,87.07
2022-12-26T09:10:27.660Z,86.69
2022-12-26T09:11:28.686Z,85.93
2022-12-26T09:12:29.230Z,86.03
2022-12-26T09:13:30.156Z,86.22
2022-12-26T09:14:30.754Z,85.08
2022-12-26T09:15:31.541Z,84.5
2022-12-26T09:16:37.350Z,84.07
2022-12-26T09:17:33.489Z,84.36
2022-12-26T09:18:34.122Z,83.12
2022-12-26T09:19:34.349Z,83.31
2022-12-26T09:20:35.269Z,82.73
2022-12-26T09:21:35.969Z,82.73
2022-12-26T09:22:40.665Z,81.97
2022-12-26T09:23:37.224Z,82.45
2022-12-26T09:24:37.775Z,81.88
2022-12-26T09:25:38.523Z,81.54
2022-12-26T09:26:39.174Z,81.44
2022-12-26T09:27:40.106Z,81.25
2022-12-26T09:28:40.290Z,80.11
2022-12-26T09:29:40.900Z,79.38
2022-12-26T09:30:41.288Z,78.91
2022-12-26T09:31:42.197Z,79.48
2022-12-26T09:32:43.432Z,79.1
2022-12-26T09:33:43.687Z,79.67
2022-12-26T09:34:44.651Z,79.28
2022-12-26T09:35:45.726Z,78.05
2022-12-26T09:36:46.833Z,77.7
2022-12-26T09:37:47.372Z,76.31
2022-12-26T09:38:47.599Z,74.24
2022-12-26T09:39:47.884Z,73.58
2022-12-26T09:40:48.127Z,72.72
2022-12-26T09:41:48.060Z,72.08
2022-12-26T09:42:48.551Z,71.32
2022-12-26T09:43:55.549Z,70.68
2022-12-26T09:44:50.076Z,70.59
2022-12-26T09:45:50.941Z,69.82
2022-12-26T09:46:51.338Z,69.25
2022-12-26T09:47:51.561Z,69.92
2022-12-26T09:48:52.242Z,69.82
2022-12-26T09:49:52.507Z,69.95
2022-12-26T09:50:53.440Z,69.82
2022-12-26T09:51:54.711Z,69.64
2022-12-26T09:52:55.009Z,70.07
2022-12-26T09:53:55.756Z,70.17
2022-12-26T09:54:56.380Z,70.07
2022-12-26T09:55:56.774Z,70.65
2022-12-26T09:57:20.067Z,70.07
2022-12-26T09:57:58.049Z,69.7
2022-12-26T09:58:58.994Z,69.79
2022-12-26T09:59:59.649Z,69.79
2022-12-26T10:01:00.318Z,69.7
2022-12-26T10:02:00.905Z,69.98
2022-12-26T10:03:01.689Z,70.27
2022-12-26T10:04:00.981Z,71.51
2022-12-26T10:05:02.004Z,71.57
2022-12-26T10:06:02.223Z,71.47
2022-12-26T10:07:02.194Z,71.67
2022-12-26T10:08:03.153Z,71.95
2022-12-26T10:09:04.362Z,71.28
2022-12-26T10:10:04.897Z,71.38
2022-12-26T10:11:05.116Z,70.71
2022-12-26T10:12:06.388Z,70.75
2022-12-26T10:13:06.610Z,69.98
2022-12-26T10:14:07.068Z,69.41
2022-12-26T10:15:07.203Z,69.44
2022-12-26T10:16:07.258Z,68.39
2022-12-26T10:17:07.606Z,68.13
2022-12-26T10:18:07.833Z,66.7
2022-12-26T10:19:08.367Z,65.88
2022-12-26T10:20:08.628Z,65.78
2022-12-26T10:21:08.585Z,65.97
2022-12-26T10:22:09.525Z,65.58
2022-12-26T10:23:10.202Z,65.71
2022-12-26T10:24:10.671Z,65.05
2022-12-26T10:25:11.454Z,64.56
2022-12-26T10:26:12.351Z,63.51
2022-12-26T10:27:12.875Z,62.74
2022-12-26T10:28:13.106Z,61.91
2022-12-26T10:29:13.756Z,61.53
2022-12-26T10:30:14.985Z,61.56
2022-12-26T10:31:15.608Z,61.34
2022-12-26T10:32:16.484Z,60.7
2022-12-26T10:33:17.440Z,60.7
2022-12-26T10:34:17.743Z,59.83
2022-12-26T10:35:18.713Z,60.31
2022-12-26T10:36:19.785Z,60.89
2022-12-26T10:37:20.003Z,61.43
2022-12-26T10:38:24.129Z,61.34
2022-12-26T10:39:20.979Z,61.63
2022-12-26T10:40:21.503Z,61.24
2022-12-26T10:41:21.740Z,60.89
2022-12-26T10:42:22.694Z,61.18
2022-12-26T10:43:23.634Z,60.7
2022-12-26T10:44:31.068Z,60.7
2022-12-26T10:45:24.996Z,60.12
2022-12-26T10:46:25.134Z,60.35
2022-12-26T10:47:25.613Z,61.4
2022-12-26T10:48:25.525Z,60.92
2022-12-26T10:49:26.065Z,60.99
2022-12-26T10:50:32.139Z,59.93
2022-12-26T10:51:27.358Z,60.28
2022-12-26T10:52:28.033Z,61.88
2022-12-26T10:53:28.715Z,62.36
2022-12-26T10:54:29.643Z,62.84
2022-12-26T10:55:34.571Z,63.1
2022-12-26T10:56:31.191Z,63.1
2022-12-26T10:57:32.164Z,63.67
2022-12-26T10:58:32.840Z,64.02
2022-12-26T10:59:33.274Z,64.4
2022-12-26T11:00:34.191Z,65.08
2022-12-26T11:01:35.335Z,64.95
2022-12-26T11:02:36.260Z,65.9
2022-12-26T11:03:35.722Z,66.28
2022-12-26T11:05:33.120Z,65.61
2022-12-26T11:06:24.000Z,65.26
2022-12-26T11:07:23.748Z,64.88
2022-12-26T11:08:24.686Z,65.11
2022-12-26T11:09:25.749Z,64.25
2022-12-26T11:10:26.362Z,64.25
2022-12-26T11:11:26.665Z,63.89
2022-12-26T11:12:26.953Z,63.99
2022-12-26T11:13:27.910Z,64.18
2022-12-26T11:14:33.655Z,63.7
2022-12-26T11:15:29.167Z,63.42
2022-12-26T11:16:29.948Z,63.89
2022-12-26T11:17:30.659Z,62.84
2022-12-26T11:18:30.894Z,63.32
2022-12-26T11:19:31.142Z,62.87
2022-12-26T11:20:31.695Z,62.77
2022-12-26T11:21:31.659Z,63.73
2022-12-26T11:22:32.318Z,64.66
2022-12-26T11:23:32.980Z,63.13
2022-12-26T11:24:33.914Z,62.93
2022-12-26T11:25:34.224Z,63.42
2022-12-26T11:26:34.901Z,63.42
2022-12-26T11:27:35.286Z,63.89
2022-12-26T11:28:35.677Z,64.95
2022-12-26T11:29:36.955Z,65.68
2022-12-26T11:30:37.698Z,65.01
2022-12-26T11:31:38.574Z,64.72
2022-12-26T11:32:39.400Z,65.11
2022-12-26T11:33:40.681Z,64.82
2022-12-26T11:34:40.874Z,65.08
2022-12-26T11:35:40.855Z,65.68
2022-12-26T11:36:41.382Z,65.78
2022-12-26T11:37:41.634Z,65.68
2022-12-26T11:38:49.901Z,66.06
2022-12-26T11:39:42.793Z,67.02
2022-12-26T11:40:43.719Z,67.5
2022-12-26T11:41:44.084Z,67.02
2022-12-26T11:42:44.304Z,66.83
2022-12-26T11:43:44.571Z,67.5
2022-12-26T11:44:44.522Z,67.41
2022-12-26T11:45:44.774Z,67.31
2022-12-26T11:46:45.409Z,67.6
2022-12-26T11:47:45.614Z,67.6
2022-12-26T11:48:46.595Z,67.5
2022-12-26T11:49:46.970Z,67.11
2022-12-26T11:50:46.941Z,67.6
2022-12-26T11:51:47.878Z,67.31
2022-12-26T11:52:48.328Z,67.21
2022-12-26T11:53:48.571Z,67.31
2022-12-26T11:54:49.667Z,67.69
2022-12-26T11:55:50.305Z,67.88
2022-12-26T11:56:51.052Z,67.5
2022-12-26T11:57:55.360Z,67.41
2022-12-26T11:58:51.721Z,67.6
2022-12-26T11:59:52.945Z,67.5
2022-12-26T12:00:53.592Z,67.5
2022-12-26T12:01:54.061Z,68.46
2022-12-26T12:02:54.717Z,67.79
2022-12-26T12:03:55.901Z,67.21
2022-12-26T12:04:55.746Z,66.35
2022-12-26T12:05:56.055Z,65.88
2022-12-26T12:06:56.301Z,66.7
2022-12-26T12:07:57.054Z,66.7
2022-12-26T12:09:02.308Z,67.37
2022-12-26T12:09:59.174Z,67.66
2022-12-26T12:10:59.387Z,67.37
2022-12-26T12:12:00.342Z,67.56
2022-12-26T12:13:00.738Z,67.66
2022-12-26T12:14:01.692Z,67.37
2022-12-26T12:15:02.033Z,67.66
2022-12-26T12:16:02.704Z,67.94
2022-12-26T12:17:03.184Z,68.13
2022-12-26T12:18:04.248Z,68.9
2022-12-26T12:19:04.160Z,68.71
2022-12-26T12:20:04.806Z,69.29
2022-12-26T12:21:06.606Z,68.71
2022-12-26T12:22:06.844Z,68.8
2022-12-26T12:23:08.090Z,68.9
2022-12-26T12:24:08.306Z,68.42
2022-12-26T12:25:09.273Z,67.94
2022-12-26T12:26:09.927Z,67.94
2022-12-26T12:27:11.203Z,68.58
2022-12-26T12:28:12.212Z,68.9
2022-12-26T12:29:13.176Z,68.62
2022-12-26T12:30:14.212Z,68.77
2022-12-26T12:31:14.909Z,69.64
2022-12-26T12:32:15.981Z,70.21
2022-12-26T12:33:16.192Z,70.68
2022-12-26T12:34:17.302Z,72.12
2022-12-26T12:35:16.975Z,71.42
2022-12-26T12:36:17.523Z,71.51
2022-12-26T12:37:18.277Z,72.28
2022-12-26T12:38:18.958Z,72.66
2022-12-26T12:39:19.478Z,74.28
2022-12-26T12:40:20.166Z,75.43
2022-12-26T12:41:21.388Z,75.81
2022-12-26T12:42:22.394Z,76.86
2022-12-26T12:43:23.338Z,77.34
2022-12-26T12:44:24.293Z,77.44
2022-12-26T12:45:24.528Z,77.72
2022-12-26T12:46:24.693Z,78.2
2022-12-26T12:47:24.944Z,78.3
2022-12-26T12:48:25.707Z,79.25
2022-12-26T12:49:26.656Z,80.21
2022-12-26T12:50:27.041Z,80.74
2022-12-26T12:51:27.277Z,81.99
2022-12-26T12:52:27.492Z,82.46
2022-12-26T12:53:27.723Z,83.33
2022-12-26T12:54:28.246Z,83.99
2022-12-26T12:55:28.797Z,85.1
2022-12-26T12:56:29.012Z,85.96
2022-12-26T12:57:29.271Z,86.63
2022-12-26T12:58:29.461Z,87.01
2022-12-26T12:59:29.699Z,87.58
2022-12-26T13:00:30.167Z,88.34
2022-12-26T13:01:31.210Z,89.16
2022-12-26T13:02:31.907Z,89.68
2022-12-26T13:03:32.800Z,89.92
2022-12-26T13:04:32.959Z,90.11